sensor_id;sensor_type;location;lat;lon;timestamp;P1;durP1;ratioP1;P2;durP2;ratioP2
76582;SDS011;65462;52.148;7.940;2023-03-23T00:01:46;9.52;;;4.30;;
76582;SDS011;65462;52.148;7.940;2023-03-23T00:04:14;5.97;;;4.30;;
76582;SDS011;65462;52.148;7.940;2023-03-23T00:06:40;8.18;;;4.72;;
76582;SDS011;65462;52.148;7.940;2023-03-23T00:09:05;7.70;;;4.15;;
76582;SDS011;65462;52.148;7.940;2023-03-23T00:11:31;9.02;;;4.30;;
76582;SDS011;65462;52.148;7.940;2023-03-23T00:13:58;9.38;;;4.43;;
76582;SDS011;65462;52.148;7.940;2023-03-23T00:16:26;5.88;;;3.92;;
76582;SDS011;65462;52.148;7.940;2023-03-23T00:18:57;7.13;;;4.15;;
76582;SDS011;65462;52.148;7.940;2023-03-23T00:21:24;8.52;;;3.97;;
76582;SDS011;65462;52.148;7.940;2023-03-23T00:24:02;8.85;;;4.32;;
76582;SDS011;65462;52.148;7.940;2023-03-23T00:26:39;7.72;;;4.57;;
76582;SDS011;65462;52.148;7.940;2023-03-23T00:29:13;6.45;;;4.30;;
76582;SDS011;65462;52.148;7.940;2023-03-23T00:31:44;6.15;;;4.32;;
76582;SDS011;65462;52.148;7.940;2023-03-23T00:34:20;6.38;;;4.22;;
76582;SDS011;65462;52.148;7.940;2023-03-23T00:36:47;7.07;;;4.40;;
76582;SDS011;65462;52.148;7.940;2023-03-23T00:39:14;7.55;;;4.85;;
76582;SDS011;65462;52.148;7.940;2023-03-23T00:41:41;6.47;;;4.30;;
76582;SDS011;65462;52.148;7.940;2023-03-23T00:44:10;7.53;;;4.55;;
76582;SDS011;65462;52.148;7.940;2023-03-23T00:46:48;7.57;;;4.75;;
76582;SDS011;65462;52.148;7.940;2023-03-23T00:49:15;7.93;;;4.57;;
76582;SDS011;65462;52.148;7.940;2023-03-23T00:51:42;10.23;;;4.50;;
76582;SDS011;65462;52.148;7.940;2023-03-23T00:54:08;6.75;;;4.65;;
76582;SDS011;65462;52.148;7.940;2023-03-23T00:56:34;9.00;;;4.25;;
76582;SDS011;65462;52.148;7.940;2023-03-23T00:59:00;10.40;;;4.90;;
76582;SDS011;65462;52.148;7.940;2023-03-23T01:01:26;6.90;;;4.00;;
76582;SDS011;65462;52.148;7.940;2023-03-23T01:03:51;10.50;;;4.70;;
76582;SDS011;65462;52.148;7.940;2023-03-23T01:06:25;6.53;;;3.97;;
76582;SDS011;65462;52.148;7.940;2023-03-23T01:08:51;5.93;;;3.80;;
76582;SDS011;65462;52.148;7.940;2023-03-23T01:11:19;6.45;;;4.13;;
76582;SDS011;65462;52.148;7.940;2023-03-23T01:13:45;7.07;;;4.43;;
76582;SDS011;65462;52.148;7.940;2023-03-23T01:16:11;8.80;;;4.43;;
76582;SDS011;65462;52.148;7.940;2023-03-23T01:18:37;7.05;;;4.32;;
76582;SDS011;65462;52.148;7.940;2023-03-23T01:21:04;8.18;;;4.53;;
76582;SDS011;65462;52.148;7.940;2023-03-23T01:23:35;5.32;;;3.72;;
76582;SDS011;65462;52.148;7.940;2023-03-23T01:26:09;8.30;;;3.92;;
76582;SDS011;65462;52.148;7.940;2023-03-23T01:28:36;7.75;;;4.03;;
76582;SDS011;65462;52.148;7.940;2023-03-23T01:31:03;6.35;;;4.22;;
76582;SDS011;65462;52.148;7.940;2023-03-23T01:33:30;7.55;;;4.00;;
76582;SDS011;65462;52.148;7.940;2023-03-23T01:35:56;8.40;;;4.13;;
76582;SDS011;65462;52.148;7.940;2023-03-23T01:38:21;6.50;;;4.28;;
76582;SDS011;65462;52.148;7.940;2023-03-23T01:40:46;8.02;;;4.00;;
76582;SDS011;65462;52.148;7.940;2023-03-23T01:43:13;6.05;;;4.30;;
76582;SDS011;65462;52.148;7.940;2023-03-23T01:45:40;6.25;;;4.38;;
76582;SDS011;65462;52.148;7.940;2023-03-23T01:51:03;7.03;;;3.85;;
76582;SDS011;65462;52.148;7.940;2023-03-23T01:53:36;7.47;;;4.20;;
76582;SDS011;65462;52.148;7.940;2023-03-23T01:56:06;6.27;;;3.73;;
76582;SDS011;65462;52.148;7.940;2023-03-23T01:58:33;6.43;;;3.97;;
76582;SDS011;65462;52.148;7.940;2023-03-23T02:01:02;5.90;;;4.00;;
76582;SDS011;65462;52.148;7.940;2023-03-23T02:03:31;8.00;;;4.25;;
76582;SDS011;65462;52.148;7.940;2023-03-23T02:05:58;7.55;;;4.38;;
76582;SDS011;65462;52.148;7.940;2023-03-23T02:08:24;6.20;;;3.60;;
76582;SDS011;65462;52.148;7.940;2023-03-23T02:10:52;8.07;;;4.32;;
76582;SDS011;65462;52.148;7.940;2023-03-23T02:13:18;5.93;;;4.03;;
76582;SDS011;65462;52.148;7.940;2023-03-23T02:15:48;5.00;;;3.78;;
76582;SDS011;65462;52.148;7.940;2023-03-23T02:18:33;6.45;;;3.90;;
76582;SDS011;65462;52.148;7.940;2023-03-23T02:32:40;6.47;;;3.83;;
76582;SDS011;65462;52.148;7.940;2023-03-23T02:35:18;6.68;;;3.72;;
76582;SDS011;65462;52.148;7.940;2023-03-23T02:37:52;5.35;;;3.63;;
76582;SDS011;65462;52.148;7.940;2023-03-23T02:40:30;5.88;;;3.72;;
76582;SDS011;65462;52.148;7.940;2023-03-23T02:43:02;7.47;;;3.50;;
76582;SDS011;65462;52.148;7.940;2023-03-23T02:45:31;4.72;;;3.53;;
76582;SDS011;65462;52.148;7.940;2023-03-23T02:47:59;5.78;;;3.47;;
76582;SDS011;65462;52.148;7.940;2023-03-23T02:50:26;7.47;;;3.60;;
76582;SDS011;65462;52.148;7.940;2023-03-23T02:52:53;6.40;;;3.78;;
76582;SDS011;65462;52.148;7.940;2023-03-23T02:55:23;5.03;;;3.42;;
76582;SDS011;65462;52.148;7.940;2023-03-23T02:57:49;4.65;;;3.38;;
76582;SDS011;65462;52.148;7.940;2023-03-23T03:00:16;4.78;;;3.20;;
76582;SDS011;65462;52.148;7.940;2023-03-23T03:02:46;6.13;;;3.17;;
76582;SDS011;65462;52.148;7.940;2023-03-23T03:05:23;6.25;;;3.30;;
76582;SDS011;65462;52.148;7.940;2023-03-23T03:16:28;5.60;;;3.05;;
76582;SDS011;65462;52.148;7.940;2023-03-23T03:18:59;5.22;;;2.65;;
76582;SDS011;65462;52.148;7.940;2023-03-23T03:21:30;5.57;;;2.83;;
76582;SDS011;65462;52.148;7.940;2023-03-23T03:23:58;6.43;;;3.55;;
76582;SDS011;65462;52.148;7.940;2023-03-23T03:26:26;4.50;;;2.80;;
76582;SDS011;65462;52.148;7.940;2023-03-23T03:28:54;4.88;;;2.75;;
76582;SDS011;65462;52.148;7.940;2023-03-23T03:31:27;5.55;;;2.55;;
76582;SDS011;65462;52.148;7.940;2023-03-23T03:33:55;3.58;;;2.22;;
76582;SDS011;65462;52.148;7.940;2023-03-23T03:36:21;4.28;;;2.20;;
76582;SDS011;65462;52.148;7.940;2023-03-23T03:38:51;4.18;;;2.55;;
76582;SDS011;65462;52.148;7.940;2023-03-23T03:41:17;5.40;;;2.15;;
76582;SDS011;65462;52.148;7.940;2023-03-23T03:43:43;5.38;;;2.30;;
76582;SDS011;65462;52.148;7.940;2023-03-23T03:46:08;4.07;;;2.28;;
76582;SDS011;65462;52.148;7.940;2023-03-23T03:48:33;3.15;;;1.92;;
76582;SDS011;65462;52.148;7.940;2023-03-23T03:50:59;3.00;;;1.95;;
76582;SDS011;65462;52.148;7.940;2023-03-23T03:53:25;4.07;;;2.20;;
76582;SDS011;65462;52.148;7.940;2023-03-23T03:55:54;3.75;;;2.30;;
76582;SDS011;65462;52.148;7.940;2023-03-23T03:58:21;3.25;;;1.98;;
76582;SDS011;65462;52.148;7.940;2023-03-23T04:00:47;3.33;;;1.88;;
76582;SDS011;65462;52.148;7.940;2023-03-23T04:03:13;3.83;;;1.95;;
76582;SDS011;65462;52.148;7.940;2023-03-23T04:05:39;3.75;;;2.20;;
76582;SDS011;65462;52.148;7.940;2023-03-23T04:08:06;3.83;;;1.98;;
76582;SDS011;65462;52.148;7.940;2023-03-23T04:10:32;5.05;;;2.00;;
76582;SDS011;65462;52.148;7.940;2023-03-23T04:12:57;3.33;;;1.83;;
76582;SDS011;65462;52.148;7.940;2023-03-23T04:15:23;2.97;;;1.77;;
76582;SDS011;65462;52.148;7.940;2023-03-23T04:17:48;2.72;;;1.73;;
76582;SDS011;65462;52.148;7.940;2023-03-23T04:20:15;3.85;;;1.90;;
76582;SDS011;65462;52.148;7.940;2023-03-23T04:22:43;4.35;;;1.88;;
76582;SDS011;65462;52.148;7.940;2023-03-23T04:25:10;4.78;;;2.05;;
76582;SDS011;65462;52.148;7.940;2023-03-23T04:27:37;4.57;;;2.17;;
76582;SDS011;65462;52.148;7.940;2023-03-23T04:30:08;4.53;;;2.40;;
76582;SDS011;65462;52.148;7.940;2023-03-23T04:32:35;4.22;;;2.05;;
76582;SDS011;65462;52.148;7.940;2023-03-23T04:35:00;3.53;;;2.22;;
76582;SDS011;65462;52.148;7.940;2023-03-23T04:37:26;3.20;;;2.03;;
76582;SDS011;65462;52.148;7.940;2023-03-23T04:39:54;3.33;;;2.10;;
76582;SDS011;65462;52.148;7.940;2023-03-23T04:42:26;3.22;;;2.03;;
76582;SDS011;65462;52.148;7.940;2023-03-23T04:44:52;4.45;;;2.08;;
76582;SDS011;65462;52.148;7.940;2023-03-23T04:47:19;3.38;;;2.00;;
76582;SDS011;65462;52.148;7.940;2023-03-23T04:49:44;3.67;;;2.40;;
76582;SDS011;65462;52.148;7.940;2023-03-23T04:52:09;4.13;;;2.10;;
76582;SDS011;65462;52.148;7.940;2023-03-23T04:54:35;2.95;;;1.90;;
76582;SDS011;65462;52.148;7.940;2023-03-23T04:57:00;3.13;;;2.08;;
76582;SDS011;65462;52.148;7.940;2023-03-23T04:59:25;2.97;;;2.10;;
76582;SDS011;65462;52.148;7.940;2023-03-23T05:01:52;3.75;;;2.13;;
76582;SDS011;65462;52.148;7.940;2023-03-23T05:04:18;3.17;;;2.17;;
76582;SDS011;65462;52.148;7.940;2023-03-23T05:06:43;4.78;;;2.10;;
76582;SDS011;65462;52.148;7.940;2023-03-23T05:09:10;4.38;;;1.90;;
76582;SDS011;65462;52.148;7.940;2023-03-23T05:11:35;4.35;;;2.50;;
76582;SDS011;65462;52.148;7.940;2023-03-23T05:14:02;4.63;;;2.05;;
76582;SDS011;65462;52.148;7.940;2023-03-23T05:16:29;3.55;;;2.10;;
76582;SDS011;65462;52.148;7.940;2023-03-23T05:18:55;2.92;;;2.13;;
76582;SDS011;65462;52.148;7.940;2023-03-23T05:21:22;4.07;;;1.90;;
76582;SDS011;65462;52.148;7.940;2023-03-23T05:23:47;3.45;;;2.22;;
76582;SDS011;65462;52.148;7.940;2023-03-23T05:26:19;3.72;;;1.67;;
76582;SDS011;65462;52.148;7.940;2023-03-23T05:28:45;4.50;;;2.13;;
76582;SDS011;65462;52.148;7.940;2023-03-23T05:31:10;2.40;;;1.90;;
76582;SDS011;65462;52.148;7.940;2023-03-23T05:33:36;4.00;;;2.08;;
76582;SDS011;65462;52.148;7.940;2023-03-23T05:36:01;3.25;;;2.00;;
76582;SDS011;65462;52.148;7.940;2023-03-23T05:38:29;2.90;;;1.98;;
76582;SDS011;65462;52.148;7.940;2023-03-23T05:40:57;3.63;;;2.30;;
76582;SDS011;65462;52.148;7.940;2023-03-23T05:43:26;2.85;;;1.90;;
76582;SDS011;65462;52.148;7.940;2023-03-23T05:45:51;3.42;;;1.90;;
76582;SDS011;65462;52.148;7.940;2023-03-23T05:48:16;4.70;;;2.42;;
76582;SDS011;65462;52.148;7.940;2023-03-23T05:50:42;4.13;;;2.08;;
76582;SDS011;65462;52.148;7.940;2023-03-23T05:53:07;2.85;;;1.90;;
76582;SDS011;65462;52.148;7.940;2023-03-23T05:55:32;4.28;;;2.15;;
76582;SDS011;65462;52.148;7.940;2023-03-23T05:57:58;2.85;;;2.05;;
76582;SDS011;65462;52.148;7.940;2023-03-23T06:00:24;3.67;;;1.70;;
76582;SDS011;65462;52.148;7.940;2023-03-23T06:02:49;3.90;;;2.42;;
76582;SDS011;65462;52.148;7.940;2023-03-23T06:05:16;3.15;;;2.20;;
76582;SDS011;65462;52.148;7.940;2023-03-23T06:07:42;2.60;;;2.10;;
76582;SDS011;65462;52.148;7.940;2023-03-23T06:10:08;3.22;;;2.08;;
76582;SDS011;65462;52.148;7.940;2023-03-23T06:12:34;3.80;;;2.17;;
76582;SDS011;65462;52.148;7.940;2023-03-23T06:15:00;3.83;;;2.10;;
76582;SDS011;65462;52.148;7.940;2023-03-23T06:17:25;3.70;;;2.30;;
76582;SDS011;65462;52.148;7.940;2023-03-23T06:19:51;3.15;;;2.30;;
76582;SDS011;65462;52.148;7.940;2023-03-23T06:22:16;4.15;;;2.53;;
76582;SDS011;65462;52.148;7.940;2023-03-23T06:24:42;3.47;;;2.15;;
76582;SDS011;65462;52.148;7.940;2023-03-23T06:27:09;4.38;;;2.40;;
76582;SDS011;65462;52.148;7.940;2023-03-23T06:29:34;4.10;;;2.70;;
76582;SDS011;65462;52.148;7.940;2023-03-23T06:32:00;4.00;;;2.53;;
76582;SDS011;65462;52.148;7.940;2023-03-23T06:34:28;3.60;;;2.15;;
76582;SDS011;65462;52.148;7.940;2023-03-23T06:36:54;3.65;;;2.33;;
76582;SDS011;65462;52.148;7.940;2023-03-23T06:39:20;4.78;;;2.35;;
76582;SDS011;65462;52.148;7.940;2023-03-23T06:41:47;3.47;;;2.05;;
76582;SDS011;65462;52.148;7.940;2023-03-23T06:44:13;4.50;;;2.35;;
76582;SDS011;65462;52.148;7.940;2023-03-23T06:46:38;5.60;;;2.70;;
76582;SDS011;65462;52.148;7.940;2023-03-23T06:49:04;4.13;;;2.60;;
76582;SDS011;65462;52.148;7.940;2023-03-23T06:51:30;4.47;;;2.60;;
76582;SDS011;65462;52.148;7.940;2023-03-23T06:53:55;3.70;;;2.40;;
76582;SDS011;65462;52.148;7.940;2023-03-23T06:56:22;4.30;;;2.47;;
76582;SDS011;65462;52.148;7.940;2023-03-23T06:58:47;4.32;;;2.30;;
76582;SDS011;65462;52.148;7.940;2023-03-23T07:01:13;5.90;;;2.83;;
76582;SDS011;65462;52.148;7.940;2023-03-23T07:03:39;4.78;;;2.65;;
76582;SDS011;65462;52.148;7.940;2023-03-23T07:06:06;7.32;;;2.95;;
76582;SDS011;65462;52.148;7.940;2023-03-23T07:08:33;4.63;;;2.90;;
76582;SDS011;65462;52.148;7.940;2023-03-23T07:10:58;4.43;;;2.65;;
76582;SDS011;65462;52.148;7.940;2023-03-23T07:13:24;6.35;;;2.58;;
76582;SDS011;65462;52.148;7.940;2023-03-23T07:15:50;5.63;;;2.85;;
76582;SDS011;65462;52.148;7.940;2023-03-23T07:18:16;4.03;;;2.45;;
76582;SDS011;65462;52.148;7.940;2023-03-23T07:20:41;4.60;;;2.53;;
76582;SDS011;65462;52.148;7.940;2023-03-23T07:23:07;5.00;;;2.78;;
76582;SDS011;65462;52.148;7.940;2023-03-23T07:25:33;4.88;;;2.65;;
76582;SDS011;65462;52.148;7.940;2023-03-23T07:28:00;7.30;;;2.72;;
76582;SDS011;65462;52.148;7.940;2023-03-23T07:30:26;4.35;;;2.40;;
76582;SDS011;65462;52.148;7.940;2023-03-23T07:32:52;4.65;;;2.90;;
76582;SDS011;65462;52.148;7.940;2023-03-23T07:35:18;6.75;;;2.78;;
76582;SDS011;65462;52.148;7.940;2023-03-23T07:37:43;4.80;;;2.90;;
76582;SDS011;65462;52.148;7.940;2023-03-23T07:40:08;4.97;;;2.70;;
76582;SDS011;65462;52.148;7.940;2023-03-23T07:42:46;4.47;;;2.60;;
76582;SDS011;65462;52.148;7.940;2023-03-23T07:45:17;6.20;;;3.38;;
76582;SDS011;65462;52.148;7.940;2023-03-23T07:47:42;4.45;;;2.53;;
76582;SDS011;65462;52.148;7.940;2023-03-23T07:50:08;5.20;;;2.38;;
76582;SDS011;65462;52.148;7.940;2023-03-23T07:52:35;6.30;;;2.63;;
76582;SDS011;65462;52.148;7.940;2023-03-23T07:55:01;6.88;;;2.50;;
76582;SDS011;65462;52.148;7.940;2023-03-23T07:57:29;5.65;;;2.72;;
76582;SDS011;65462;52.148;7.940;2023-03-23T07:59:55;4.80;;;2.60;;
76582;SDS011;65462;52.148;7.940;2023-03-23T08:02:21;5.43;;;2.75;;
76582;SDS011;65462;52.148;7.940;2023-03-23T08:04:48;5.75;;;2.78;;
76582;SDS011;65462;52.148;7.940;2023-03-23T08:07:13;4.63;;;2.40;;
76582;SDS011;65462;52.148;7.940;2023-03-23T08:09:41;4.13;;;2.25;;
76582;SDS011;65462;52.148;7.940;2023-03-23T08:12:07;4.95;;;2.60;;
76582;SDS011;65462;52.148;7.940;2023-03-23T08:14:32;4.50;;;2.65;;
76582;SDS011;65462;52.148;7.940;2023-03-23T08:16:57;6.80;;;2.45;;
76582;SDS011;65462;52.148;7.940;2023-03-23T08:19:23;5.10;;;2.50;;
76582;SDS011;65462;52.148;7.940;2023-03-23T08:21:49;4.30;;;2.55;;
76582;SDS011;65462;52.148;7.940;2023-03-23T08:24:15;3.47;;;2.40;;
76582;SDS011;65462;52.148;7.940;2023-03-23T08:26:40;5.05;;;2.35;;
76582;SDS011;65462;52.148;7.940;2023-03-23T08:29:06;4.80;;;2.50;;
76582;SDS011;65462;52.148;7.940;2023-03-23T08:31:33;3.38;;;2.40;;
76582;SDS011;65462;52.148;7.940;2023-03-23T08:34:00;5.25;;;2.50;;
76582;SDS011;65462;52.148;7.940;2023-03-23T08:36:27;5.53;;;2.63;;
76582;SDS011;65462;52.148;7.940;2023-03-23T08:38:53;4.00;;;2.40;;
76582;SDS011;65462;52.148;7.940;2023-03-23T08:41:19;7.50;;;2.70;;
76582;SDS011;65462;52.148;7.940;2023-03-23T08:43:44;7.07;;;2.20;;
76582;SDS011;65462;52.148;7.940;2023-03-23T08:46:10;3.58;;;2.15;;
76582;SDS011;65462;52.148;7.940;2023-03-23T08:48:36;4.78;;;2.40;;
76582;SDS011;65462;52.148;7.940;2023-03-23T08:51:03;7.20;;;2.30;;
76582;SDS011;65462;52.148;7.940;2023-03-23T08:53:30;5.18;;;2.30;;
76582;SDS011;65462;52.148;7.940;2023-03-23T08:55:56;4.72;;;2.30;;
76582;SDS011;65462;52.148;7.940;2023-03-23T08:58:21;4.80;;;2.40;;
76582;SDS011;65462;52.148;7.940;2023-03-23T09:00:47;5.80;;;2.22;;
76582;SDS011;65462;52.148;7.940;2023-03-23T09:03:13;5.25;;;2.40;;
76582;SDS011;65462;52.148;7.940;2023-03-23T09:05:38;8.07;;;2.28;;
76582;SDS011;65462;52.148;7.940;2023-03-23T09:08:07;5.60;;;2.35;;
76582;SDS011;65462;52.148;7.940;2023-03-23T09:10:33;7.05;;;2.60;;
76582;SDS011;65462;52.148;7.940;2023-03-23T09:12:58;5.38;;;2.22;;
76582;SDS011;65462;52.148;7.940;2023-03-23T09:15:24;4.43;;;2.38;;
76582;SDS011;65462;52.148;7.940;2023-03-23T09:17:50;5.50;;;2.38;;
76582;SDS011;65462;52.148;7.940;2023-03-23T09:20:18;6.53;;;2.70;;
76582;SDS011;65462;52.148;7.940;2023-03-23T09:22:50;7.68;;;3.10;;
76582;SDS011;65462;52.148;7.940;2023-03-23T09:25:17;7.05;;;2.70;;
76582;SDS011;65462;52.148;7.940;2023-03-23T09:27:46;4.63;;;2.55;;
76582;SDS011;65462;52.148;7.940;2023-03-23T09:30:16;7.55;;;2.60;;
76582;SDS011;65462;52.148;7.940;2023-03-23T09:32:44;6.75;;;2.60;;
76582;SDS011;65462;52.148;7.940;2023-03-23T09:35:09;4.65;;;3.00;;
76582;SDS011;65462;52.148;7.940;2023-03-23T09:37:37;6.53;;;2.80;;
76582;SDS011;65462;52.148;7.940;2023-03-23T09:40:04;5.05;;;2.63;;
76582;SDS011;65462;52.148;7.940;2023-03-23T09:42:37;5.28;;;2.55;;
76582;SDS011;65462;52.148;7.940;2023-03-23T09:45:22;8.63;;;2.83;;
76582;SDS011;65462;52.148;7.940;2023-03-23T09:48:03;4.20;;;2.67;;
76582;SDS011;65462;52.148;7.940;2023-03-23T09:51:00;3.80;;;2.20;;
76582;SDS011;65462;52.148;7.940;2023-03-23T09:53:46;3.58;;;2.63;;
76582;SDS011;65462;52.148;7.940;2023-03-23T09:56:16;5.93;;;2.85;;
76582;SDS011;65462;52.148;7.940;2023-03-23T10:01:23;4.35;;;2.60;;
76582;SDS011;65462;52.148;7.940;2023-03-23T10:03:55;6.95;;;2.92;;
76582;SDS011;65462;52.148;7.940;2023-03-23T10:06:28;6.13;;;2.78;;
76582;SDS011;65462;52.148;7.940;2023-03-23T10:08:54;5.78;;;2.50;;
76582;SDS011;65462;52.148;7.940;2023-03-23T10:14:25;4.53;;;1.50;;
76582;SDS011;65462;52.148;7.940;2023-03-23T10:17:03;3.28;;;1.05;;
76582;SDS011;65462;52.148;7.940;2023-03-23T10:19:51;2.35;;;1.00;;
76582;SDS011;65462;52.148;7.940;2023-03-23T10:22:23;3.25;;;0.98;;
76582;SDS011;65462;52.148;7.940;2023-03-23T10:24:57;1.75;;;0.95;;
76582;SDS011;65462;52.148;7.940;2023-03-23T10:30:23;1.67;;;0.60;;
76582;SDS011;65462;52.148;7.940;2023-03-23T10:32:54;1.35;;;0.60;;
76582;SDS011;65462;52.148;7.940;2023-03-23T10:35:26;1.73;;;0.70;;
76582;SDS011;65462;52.148;7.940;2023-03-23T10:38:01;2.47;;;0.63;;
76582;SDS011;65462;52.148;7.940;2023-03-23T10:40:30;3.00;;;0.82;;
76582;SDS011;65462;52.148;7.940;2023-03-23T10:42:57;4.43;;;0.77;;
76582;SDS011;65462;52.148;7.940;2023-03-23T10:45:24;0.88;;;0.40;;
76582;SDS011;65462;52.148;7.940;2023-03-23T10:47:54;3.15;;;0.77;;
76582;SDS011;65462;52.148;7.940;2023-03-23T10:50:26;2.58;;;0.60;;
76582;SDS011;65462;52.148;7.940;2023-03-23T10:52:55;1.05;;;0.30;;
76582;SDS011;65462;52.148;7.940;2023-03-23T10:55:23;2.40;;;0.52;;
76582;SDS011;65462;52.148;7.940;2023-03-23T10:58:00;2.15;;;0.40;;
76582;SDS011;65462;52.148;7.940;2023-03-23T11:00:27;1.45;;;0.52;;
76582;SDS011;65462;52.148;7.940;2023-03-23T11:03:05;0.82;;;0.40;;
76582;SDS011;65462;52.148;7.940;2023-03-23T11:05:41;2.17;;;0.32;;
76582;SDS011;65462;52.148;7.940;2023-03-23T11:08:16;1.20;;;0.63;;
76582;SDS011;65462;52.148;7.940;2023-03-23T11:10:51;0.98;;;0.30;;
76582;SDS011;65462;52.148;7.940;2023-03-23T11:15:45;1.13;;;0.38;;
76582;SDS011;65462;52.148;7.940;2023-03-23T11:18:13;3.22;;;0.63;;
76582;SDS011;65462;52.148;7.940;2023-03-23T11:20:45;4.72;;;0.57;;
76582;SDS011;65462;52.148;7.940;2023-03-23T11:25:50;2.33;;;0.43;;
76582;SDS011;65462;52.148;7.940;2023-03-23T11:28:19;2.70;;;0.55;;
76582;SDS011;65462;52.148;7.940;2023-03-23T11:30:44;1.52;;;0.30;;
76582;SDS011;65462;52.148;7.940;2023-03-23T11:33:10;1.02;;;0.35;;
76582;SDS011;65462;52.148;7.940;2023-03-23T11:35:37;3.50;;;0.60;;
76582;SDS011;65462;52.148;7.940;2023-03-23T11:38:03;1.00;;;0.55;;
76582;SDS011;65462;52.148;7.940;2023-03-23T11:40:31;2.20;;;0.55;;
76582;SDS011;65462;52.148;7.940;2023-03-23T11:43:12;1.15;;;0.40;;
76582;SDS011;65462;52.148;7.940;2023-03-23T11:45:39;1.60;;;0.50;;
76582;SDS011;65462;52.148;7.940;2023-03-23T11:48:18;2.50;;;0.45;;
76582;SDS011;65462;52.148;7.940;2023-03-23T11:50:54;2.75;;;0.60;;
76582;SDS011;65462;52.148;7.940;2023-03-23T11:53:25;2.72;;;0.75;;
76582;SDS011;65462;52.148;7.940;2023-03-23T11:56:15;2.63;;;0.52;;
76582;SDS011;65462;52.148;7.940;2023-03-23T11:58:55;2.10;;;0.60;;
76582;SDS011;65462;52.148;7.940;2023-03-23T12:06:53;3.45;;;0.50;;
76582;SDS011;65462;52.148;7.940;2023-03-23T12:12:31;2.22;;;0.60;;
76582;SDS011;65462;52.148;7.940;2023-03-23T12:15:23;1.77;;;0.50;;
76582;SDS011;65462;52.148;7.940;2023-03-23T12:18:17;3.83;;;0.50;;
76582;SDS011;65462;52.148;7.940;2023-03-23T12:20:48;1.67;;;0.40;;
76582;SDS011;65462;52.148;7.940;2023-03-23T12:23:22;1.55;;;0.47;;
76582;SDS011;65462;52.148;7.940;2023-03-23T12:34:20;2.25;;;0.82;;
76582;SDS011;65462;52.148;7.940;2023-03-23T12:43:03;1.83;;;0.70;;
76582;SDS011;65462;52.148;7.940;2023-03-23T12:45:43;2.45;;;0.52;;
76582;SDS011;65462;52.148;7.940;2023-03-23T12:48:12;0.98;;;0.55;;
76582;SDS011;65462;52.148;7.940;2023-03-23T12:50:42;2.17;;;0.70;;
76582;SDS011;65462;52.148;7.940;2023-03-23T12:53:14;1.58;;;0.40;;
76582;SDS011;65462;52.148;7.940;2023-03-23T12:55:47;3.42;;;0.77;;
76582;SDS011;65462;52.148;7.940;2023-03-23T12:58:18;1.85;;;0.95;;
76582;SDS011;65462;52.148;7.940;2023-03-23T13:00:57;1.52;;;0.80;;
76582;SDS011;65462;52.148;7.940;2023-03-23T13:08:49;3.17;;;0.85;;
76582;SDS011;65462;52.148;7.940;2023-03-23T13:11:35;4.82;;;0.80;;
76582;SDS011;65462;52.148;7.940;2023-03-23T13:25:17;2.15;;;0.70;;
76582;SDS011;65462;52.148;7.940;2023-03-23T13:27:44;2.00;;;0.60;;
76582;SDS011;65462;52.148;7.940;2023-03-23T13:30:21;2.38;;;0.75;;
76582;SDS011;65462;52.148;7.940;2023-03-23T13:32:50;4.78;;;0.90;;
76582;SDS011;65462;52.148;7.940;2023-03-23T13:35:18;4.85;;;1.00;;
76582;SDS011;65462;52.148;7.940;2023-03-23T13:37:50;2.58;;;0.70;;
76582;SDS011;65462;52.148;7.940;2023-03-23T13:40:27;2.35;;;0.90;;
76582;SDS011;65462;52.148;7.940;2023-03-23T13:42:55;1.48;;;0.75;;
76582;SDS011;65462;52.148;7.940;2023-03-23T13:45:23;2.30;;;0.88;;
76582;SDS011;65462;52.148;7.940;2023-03-23T13:53:13;2.22;;;0.82;;
76582;SDS011;65462;52.148;7.940;2023-03-23T13:55:47;3.00;;;1.30;;
76582;SDS011;65462;52.148;7.940;2023-03-23T13:58:21;3.58;;;1.25;;
76582;SDS011;65462;52.148;7.940;2023-03-23T14:03:24;2.05;;;1.60;;
76582;SDS011;65462;52.148;7.940;2023-03-23T14:10:56;2.75;;;1.98;;
76582;SDS011;65462;52.148;7.940;2023-03-23T14:18:54;2.33;;;2.13;;
76582;SDS011;65462;52.148;7.940;2023-03-23T14:23:52;3.72;;;1.90;;
76582;SDS011;65462;52.148;7.940;2023-03-23T14:26:20;2.35;;;1.92;;
76582;SDS011;65462;52.148;7.940;2023-03-23T14:28:49;3.47;;;1.83;;
76582;SDS011;65462;52.148;7.940;2023-03-23T14:31:19;2.47;;;1.95;;
76582;SDS011;65462;52.148;7.940;2023-03-23T14:33:48;3.75;;;2.20;;
76582;SDS011;65462;52.148;7.940;2023-03-23T14:36:18;4.15;;;2.35;;
76582;SDS011;65462;52.148;7.940;2023-03-23T14:38:55;2.60;;;2.40;;
76582;SDS011;65462;52.148;7.940;2023-03-23T14:41:28;3.88;;;2.28;;
76582;SDS011;65462;52.148;7.940;2023-03-23T14:43:54;3.35;;;2.22;;
76582;SDS011;65462;52.148;7.940;2023-03-23T14:46:20;2.97;;;2.40;;
76582;SDS011;65462;52.148;7.940;2023-03-23T14:48:45;3.78;;;2.75;;
76582;SDS011;65462;52.148;7.940;2023-03-23T14:51:17;3.83;;;3.00;;
76582;SDS011;65462;52.148;7.940;2023-03-23T14:53:43;3.38;;;2.90;;
76582;SDS011;65462;52.148;7.940;2023-03-23T14:56:12;4.22;;;3.20;;
76582;SDS011;65462;52.148;7.940;2023-03-23T14:58:49;3.75;;;2.80;;
76582;SDS011;65462;52.148;7.940;2023-03-23T15:01:19;4.05;;;2.88;;
76582;SDS011;65462;52.148;7.940;2023-03-23T15:03:51;4.57;;;3.17;;
76582;SDS011;65462;52.148;7.940;2023-03-23T15:06:21;3.85;;;2.85;;
76582;SDS011;65462;52.148;7.940;2023-03-23T15:08:47;4.40;;;2.95;;
76582;SDS011;65462;52.148;7.940;2023-03-23T15:13:50;4.43;;;3.30;;
76582;SDS011;65462;52.148;7.940;2023-03-23T15:16:23;4.90;;;3.53;;
76582;SDS011;65462;52.148;7.940;2023-03-23T15:18:54;3.78;;;3.33;;
76582;SDS011;65462;52.148;7.940;2023-03-23T15:21:33;4.45;;;3.72;;
76582;SDS011;65462;52.148;7.940;2023-03-23T15:24:00;5.18;;;4.35;;
76582;SDS011;65462;52.148;7.940;2023-03-23T15:26:33;5.75;;;3.97;;
76582;SDS011;65462;52.148;7.940;2023-03-23T15:31:32;7.53;;;4.00;;
76582;SDS011;65462;52.148;7.940;2023-03-23T15:34:02;5.78;;;3.25;;
76582;SDS011;65462;52.148;7.940;2023-03-23T15:36:31;5.10;;;4.10;;
76582;SDS011;65462;52.148;7.940;2023-03-23T15:38:58;6.63;;;4.15;;
76582;SDS011;65462;52.148;7.940;2023-03-23T15:41:28;6.78;;;3.83;;
76582;SDS011;65462;52.148;7.940;2023-03-23T15:43:58;6.90;;;3.70;;
76582;SDS011;65462;52.148;7.940;2023-03-23T15:46:35;6.55;;;3.55;;
76582;SDS011;65462;52.148;7.940;2023-03-23T15:51:26;4.85;;;3.10;;
76582;SDS011;65462;52.148;7.940;2023-03-23T15:53:54;5.10;;;3.10;;
76582;SDS011;65462;52.148;7.940;2023-03-23T15:56:21;8.05;;;3.70;;
76582;SDS011;65462;52.148;7.940;2023-03-23T15:58:47;4.25;;;3.03;;
76582;SDS011;65462;52.148;7.940;2023-03-23T16:01:19;7.97;;;3.28;;
76582;SDS011;65462;52.148;7.940;2023-03-23T16:03:51;4.90;;;3.35;;
76582;SDS011;65462;52.148;7.940;2023-03-23T16:06:19;8.20;;;3.92;;
76582;SDS011;65462;52.148;7.940;2023-03-23T16:08:46;5.72;;;3.13;;
76582;SDS011;65462;52.148;7.940;2023-03-23T16:11:12;5.43;;;3.55;;
76582;SDS011;65462;52.148;7.940;2023-03-23T16:13:39;6.18;;;3.13;;
76582;SDS011;65462;52.148;7.940;2023-03-23T16:16:05;4.88;;;3.30;;
76582;SDS011;65462;52.148;7.940;2023-03-23T16:18:36;6.13;;;3.63;;
76582;SDS011;65462;52.148;7.940;2023-03-23T16:21:01;8.63;;;4.45;;
76582;SDS011;65462;52.148;7.940;2023-03-23T16:23:27;5.45;;;3.75;;
76582;SDS011;65462;52.148;7.940;2023-03-23T16:25:52;5.50;;;3.85;;
76582;SDS011;65462;52.148;7.940;2023-03-23T16:28:18;6.28;;;3.60;;
76582;SDS011;65462;52.148;7.940;2023-03-23T16:30:44;8.25;;;3.53;;
76582;SDS011;65462;52.148;7.940;2023-03-23T16:33:10;5.20;;;3.28;;
76582;SDS011;65462;52.148;7.940;2023-03-23T16:35:35;5.80;;;4.05;;
76582;SDS011;65462;52.148;7.940;2023-03-23T16:38:01;5.35;;;3.65;;
76582;SDS011;65462;52.148;7.940;2023-03-23T16:40:27;4.78;;;3.85;;
76582;SDS011;65462;52.148;7.940;2023-03-23T16:42:52;6.95;;;4.03;;